Terminal Aerodrome Forecast
Issued by NWS Shreveport, LA

Home | Current Version | Previous Version | Text Only | Print | Product List | Glossary On
Versions: 1 2 3 4 5 6 7 8 9 10 11 12 13 14
894
FTUS44 KSHV 201729
TAFLFK
TAF
KLFK 201729Z 2018/2118 15007KT 4SM BR OVC003
     FM202100 16010KT 4SM BR OVC007
     FM211000 16010KT 4SM BR OVC003
     FM211600 16012G18KT P6SM OVC003=

USA.gov is the U.S. government's official web portal to all federal, state and local government web resources and services.